Delray Beach, FL (33448)

2:56 AM EDT on September 02, 2015 (GMT -0400)
SFWMD | | Change Station
CLOSE
Current Station
Personal Weather Station
Location: Delray Beach, FL
Elevation: 10 ft
Nearby Weather Stations

Elev 10 ft 26.50 °N, 80.22 °W | Updated 41 minutes ago

Clear
Clear
78 °F
Feels Like 81 °F
N
4
Wind Variable Wind from East
Gusts 4.0 mph

Today
High -- | Low -- °F
--% Chance of Precip.
Yesterday
High -- | Low -- °F
Precip. -- in
7:00 AM 7:39 PM
Waning Gibbous, 83% visible
Pressure 30.04 in
Visibility 10.0 miles
Clouds Few 2200 ft
Scattered Clouds 2800 ft
Heat Index 81 °F
Dew Point 76 °F
Humidity 95%
Rainfall in
Snow Depth Not available.
UV 0 out of 12
Pollen 4.80 out of 12
Air Quality Not available.
Flu Activity Not available.
METAR KPMP 020653Z AUTO 13008KT 10SM FEW022 SCT028 29/24 A3004 RMK AO2 SLP173 T02890239
Pressure 30.04 in
Visibility 10.0 miles
Clouds Few 2200 ft
Scattered Clouds 2800 ft
Heat Index 81 °F
Dew Point 76 °F
Humidity 95%
Rainfall in
Snow Depth Not available.
UV 0 out of 12
Pollen 4.80 out of 12
Air Quality Not available.
Flu Activity Not available.
METAR KPMP 020653Z AUTO 13008KT 10SM FEW022 SCT028 29/24 A3004 RMK AO2 SLP173 T02890239

10-Day Weather Forecast

×

Almanac

Astronomy

Sep. 02, 2015 Rise Set
Actual Time
Civil Twilight
Nautical Twilight
Astronomical Twilight
Moon
Length of Visible Light
Length of Day
Tomorrow will be .
, % of the Moon is Illuminated

Today's Extremes

State Highs State Lows

Community

WunderPhotos

Upload Photos

1,851,709 photos uploaded!

WunderBlogs® & News

Nearby

Air Quality

  Air Quality AQ Index Pollutant
Not available.

Snow Depth

Station Depth Elevation

Earthquake Activity

City Distance Mag. Time & Date
Minimum magnitude displayed is 2.5.

Coastal Water Temperatures

Place Temperature

Stations

Nearby Weather Stations

Station Location Temp. Windchill Dew Point Humidity Wind Precip. Elev Updated Type